Kingston, Tennessee
Current Conditions -  °F | °C
As of 5:07 AM on Saturday 25 Oct 2014 (Local Time) from KOQT Reporting Station
Haze Haze  
Wind Chill: 41°   Ceiling: Unl
Heat Index: 41°   Visibility: 4mi
Dew Point: 39°   Wind: 0mph
Humidity: 93%   Direction: NA
Pressure: 30.09"   Gusts: NA
Location:  35.88°N, 84.51°W
Report Text: KOQT 250907Z AUTO 00000KT 4SM BR SCT002 05/04 A3009 RMK AO2 T00500039
Loading
Personal Weather Stations






























Interactive Weather Map
Tropical Storm Tracking
New forecast layout! Learn more

10-Day Weather Forecast

Advertisements
Track Severe Weather on mobile